地図

経路データ

SID SEASON NUMBER BASIN SUBBASIN NAME ISO_TIME NATURE LAT LON WMO_WIND WMO_PRES WMO_AGENCY TRACK_TYPE DIST2LAND LANDFALL IFLAG USA_AGENCY USA_ATCF_ID USA_LAT USA_LON USA_RECORD USA_STATUS USA_WIND USA_PRES USA_SSHS USA_R34_NE USA_R34_SE USA_R34_SW USA_R34_NW USA_R50_NE USA_R50_SE USA_R50_SW USA_R50_NW USA_R64_NE USA_R64_SE USA_R64_SW USA_R64_NW USA_POCI USA_ROCI USA_RMW USA_EYE TOKYO_LAT TOKYO_LON TOKYO_GRADE TOKYO_WIND TOKYO_PRES TOKYO_R50_DIR TOKYO_R50_LONG TOKYO_R50_SHORT TOKYO_R30_DIR TOKYO_R30_LONG TOKYO_R30_SHORT TOKYO_LAND CMA_LAT CMA_LON CMA_CAT CMA_WIND CMA_PRES HKO_LAT HKO_LON HKO_CAT HKO_WIND HKO_PRES NEWDELHI_LAT NEWDELHI_LON NEWDELHI_GRADE NEWDELHI_WIND NEWDELHI_PRES NEWDELHI_CI NEWDELHI_DP NEWDELHI_POCI REUNION_LAT REUNION_LON REUNION_TYPE REUNION_WIND REUNION_PRES REUNION_TNUM REUNION_CI REUNION_RMW REUNION_R34_NE REUNION_R34_SE REUNION_R34_SW REUNION_R34_NW REUNION_R50_NE REUNION_R50_SE REUNION_R50_SW REUNION_R50_NW REUNION_R64_NE REUNION_R64_SE REUNION_R64_SW REUNION_R64_NW BOM_LAT BOM_LON BOM_TYPE BOM_WIND BOM_PRES BOM_TNUM BOM_CI BOM_RMW BOM_R34_NE BOM_R34_SE BOM_R34_SW BOM_R34_NW BOM_R50_NE BOM_R50_SE BOM_R50_SW BOM_R50_NW BOM_R64_NE BOM_R64_SE BOM_R64_SW BOM_R64_NW BOM_ROCI BOM_POCI BOM_EYE BOM_POS_METHOD BOM_PRES_METHOD NADI_LAT NADI_LON NADI_CAT NADI_WIND NADI_PRES WELLINGTON_LAT WELLINGTON_LON WELLINGTON_WIND WELLINGTON_PRES DS824_LAT DS824_LON DS824_STAGE DS824_WIND DS824_PRES TD9636_LAT TD9636_LON TD9636_STAGE TD9636_WIND TD9636_PRES TD9635_LAT TD9635_LON TD9635_WIND TD9635_PRES TD9635_ROCI NEUMANN_LAT NEUMANN_LON NEUMANN_CLASS NEUMANN_WIND NEUMANN_PRES MLC_LAT MLC_LON MLC_CLASS MLC_WIND MLC_PRES USA_GUST BOM_GUST BOM_GUST_PER REUNION_GUST REUNION_GUST_PER USA_SEAHGT USA_SEARAD_NE USA_SEARAD_SE USA_SEARAD_SW USA_SEARAD_NW STORM_SPEED STORM_DIR
1998281N11151 1998 81 WP MM ZEB 1998-10-07 18:00:00 NR 11.2000 151.000 main 1542 1515 O_____________ jtwc_wp WP181998 11.2000 151.000 15 -1 12 260
1998281N11151 1998 81 WP MM ZEB 1998-10-07 21:00:00 NR 11.0928 150.382 main 1515 1491 P_____________ WP181998 11.0928 150.382 15 -1 12 260
1998281N11151 1998 81 WP MM ZEB 1998-10-08 00:00:00 NR 11.0000 149.800 main 1491 1471 O_____________ jtwc_wp WP181998 11.0000 149.800 15 -1 11 262
1998281N11151 1998 81 WP MM ZEB 1998-10-08 03:00:00 NR 10.9347 149.265 main 1471 1463 P_____________ WP181998 10.9347 149.265 15 -1 11 265
1998281N11151 1998 81 WP MM ZEB 1998-10-08 06:00:00 NR 10.9000 148.700 main 1463 1458 O_____________ jtwc_wp WP181998 10.9000 148.700 15 -1 12 268
1998281N11151 1998 81 WP MM ZEB 1998-10-08 09:00:00 NR 10.8999 148.030 main 1458 1456 P_____________ WP181998 10.8999 148.030 17 -1 14 270
1998281N11151 1998 81 WP MM ZEB 1998-10-08 12:00:00 NR 10.9000 147.300 main 1456 1456 O_____________ jtwc_wp WP181998 10.9000 147.300 20 -1 15 268
1998281N11151 1998 81 WP MM ZEB 1998-10-08 15:00:00 NR 10.8499 146.550 main 1445 1445 P_____________ WP181998 10.8499 146.550 20 -1 15 266
1998281N11151 1998 81 WP MM ZEB 1998-10-08 18:00:00 NR 10.8000 145.800 main 1448 1448 O_____________ jtwc_wp WP181998 10.8000 145.800 20 -1 14 268
1998281N11151 1998 81 WP MM ZEB 1998-10-08 21:00:00 NR 10.7924 145.078 main 1454 1454 P_____________ WP181998 10.7924 145.078 20 -1 14 270
1998281N11151 1998 81 WP MM ZEB 1998-10-09 00:00:00 NR 10.8000 144.400 main 1465 1465 O_____________ jtwc_wp WP181998 10.8000 144.400 20 -1 13 270
1998281N11151 1998 81 WP MM ZEB 1998-10-09 03:00:00 NR 10.7999 143.755 main 1478 1478 P_____________ WP181998 10.7999 143.755 20 -1 12 270
1998281N11151 1998 81 WP MM ZEB 1998-10-09 06:00:00 NR 10.8000 143.200 main 1493 1479 O_____________ jtwc_wp WP181998 10.8000 143.200 20 -1 10 270
1998281N11151 1998 81 WP MM ZEB 1998-10-09 09:00:00 NR 10.7999 142.755 main 1479 1465 P_____________ WP181998 10.7999 142.755 22 -1 8 270
1998281N11151 1998 81 WP MM ZEB 1998-10-09 12:00:00 NR 10.8000 142.400 main 1465 1454 O_____________ jtwc_wp WP181998 10.8000 142.400 25 -1 7 270
1998281N11151 1998 81 WP MM ZEB 1998-10-09 15:00:00 NR 10.7999 142.085 main 1454 1448 P_____________ WP181998 10.7999 142.085 25 -1 5 274
1998281N11151 1998 81 WP MM ZEB 1998-10-09 18:00:00 NR 10.8400 141.860 main 1448 1445 O__O__________ jtwc_wp WP181998 10.8000 141.800 25 -1 11.0000 142.100 TD 25 1004 4 280
1998281N11151 1998 81 WP MM ZEB 1998-10-09 21:00:00 NR 10.8724 141.658 main 1453 1444 P__P__________ WP181998 10.7999 141.523 27 -1 11.0175 141.928 TD 25 1004 4 281
1998281N11151 1998 81 WP MM ZEB 1998-10-10 00:00:00 TS 10.9222 141.422 1004 tokyo main 1444 1431 OOOO__________ jtwc_wp WP181998 10.8000 141.200 30 -1 11.1000 141.400 2 1004 0 0 0 11.0000 141.500 1 29 1002 11.0000 141.700 TD 25 1004 6 269
1998281N11151 1998 81 WP MM ZEB 1998-10-10 03:00:00 TS 10.8630 141.066 main 1431 1393 PPPP__________ WP181998 10.8150 140.780 32 -1 10.8951 141.040 2 1003 0 0 10.8077 141.035 1 29 1002 10.9225 141.380 TD 27 1002 8 256
1998281N11151 1998 81 WP MM ZEB 1998-10-10 06:00:00 TS 10.7357 140.650 1002 tokyo main 1393 1367 OOOO__________ jtwc_wp WP181998 10.8000 140.300 35 0 10.7000 140.700 2 1002 0 0 0 10.6000 140.600 1 29 1002 10.8000 141.000 TD 30 1000 9 249
1998281N11151 1998 81 WP MM ZEB 1998-10-10 09:00:00 TS 10.5599 140.258 main 1367 1330 PPPP__________ WP181998 10.6924 139.815 37 0 10.5273 140.380 2 1001 0 0 10.3774 140.208 1 29 1001 10.6424 140.630 TD 32 999 9 249
1998281N11151 1998 81 WP MM ZEB 1998-10-10 12:00:00 TS 10.4250 139.825 1000 tokyo main 1327 1309 OOOO__________ jtwc_wp WP181998 10.6000 139.300 40 0 10.4000 140.000 2 1000 0 0 0 10.2000 139.800 1 29 1000 10.5000 140.200 TS 35 998 10 258
1998281N11151 1998 81 WP MM ZEB 1998-10-10 15:00:00 TS 10.3625 139.314 main 1309 1293 PPPP__________ WP181998 10.6350 138.750 42 0 10.2975 139.487 2 998 0 0 10.0974 139.330 1 31 998 10.4199 139.687 TS 37 996 11 267
1998281N11151 1998 81 WP MM ZEB 1998-10-10 18:00:00 TS 10.3750 138.750 35 996 tokyo main 1293 1276 OOOO__________ jtwc_wp WP181998 10.7000 138.200 45 0 10.3000 138.900 3 35 996 0 9 40 40 0 10.1000 138.800 2 34 997 10.4000 139.100 TS 40 994 11 274
1998281N11151 1998 81 WP MM ZEB 1998-10-10 21:00:00 TS 10.4487 138.176 main 1276 1251 PPPP__________ WP181998 10.7073 137.707 47 0 10.4624 138.308 3 40 993 0 9 70 70 10.1975 138.215 2 36 996 10.4274 138.473 TS 42 992 12 280
1998281N11151 1998 81 WP MM ZEB 1998-10-11 00:00:00 TS 10.5750 137.575 45 990 tokyo main 1251 1190 OOOO__________ jtwc_wp WP181998 10.7000 137.200 50 0 10.7000 137.700 3 45 990 0 9 100 100 0 10.4000 137.600 2 38 995 10.5000 137.800 TS 45 990 12 283
1998281N11151 1998 81 WP MM ZEB 1998-10-11 03:00:00 TS 10.7267 136.973 main 1190 1132 PPPP__________ WP181998 10.6850 136.615 52 0 10.9222 137.130 3 47 987 0 9 120 120 10.6996 137.038 2 41 992 10.5999 137.108 TS 47 987 13 284
1998281N11151 1998 81 WP MM ZEB 1998-10-11 06:00:00 TS 10.8750 136.325 50 985 tokyo main 1121 1048 OOOO__________ jtwc_wp WP181998 10.7000 136.000 55 0 11.1000 136.500 4 50 985 0 9 140 140 0 11.0000 136.400 2 44 990 10.7000 136.400 STS 50 985 14 281
1998281N11151 1998 81 WP MM ZEB 1998-10-11 09:00:00 TS 10.9888 135.586 main 1048 974 PPPP__________ WP181998 10.7849 135.400 57 0 11.1802 135.707 4 52 982 0 9 160 160 11.2329 135.543 2 46 987 10.7574 135.692 STS 52 980 15 277
1998281N11151 1998 81 WP MM ZEB 1998-10-11 12:00:00 TS 11.0500 134.850 55 980 tokyo main 976 899 OOOO__________ jtwc_wp WP181998 10.9000 134.800 60 0 11.2000 134.900 4 55 980 9 50 50 9 180 180 0 11.3000 134.700 3 48 985 10.8000 135.000 STS 55 975 14 271
1998281N11151 1998 81 WP MM ZEB 1998-10-11 15:00:00 TS 11.0117 134.207 main 899 846 PPPP__________ WP181998 10.9924 134.200 67 1 11.1923 134.205 4 55 980 9 55 55 9 190 190 11.0347 134.089 3 51 985 10.8274 134.335 STS 57 975 12 268
1998281N11151 1998 81 WP MM ZEB 1998-10-11 18:00:00 TS 11.0000 133.625 55 980 tokyo main 835 785 OOOO__________ jtwc_wp WP181998 11.1000 133.600 75 1 11.2000 133.600 4 55 980 9 60 60 9 200 200 0 10.8000 133.600 3 54 985 10.9000 133.700 STS 60 975 11 275
1998281N11151 1998 81 WP MM ZEB 1998-10-11 21:00:00 TS 11.1092 133.089 main 785 739 PPPP__________ WP181998 11.2049 133.000 82 1 11.2322 133.100 4 60 977 9 72 72 9 220 220 10.9447 133.172 3 56 982 11.0549 133.085 STS 62 972 11 288
1998281N11151 1998 81 WP MM ZEB 1998-10-12 00:00:00 TS 11.3500 132.550 65 975 tokyo main 742 680 OOOO__________ jtwc_wp WP181998 11.4000 132.400 90 2 11.4000 132.600 5 65 975 9 85 85 9 240 240 0 11.3000 132.700 3 58 980 11.3000 132.500 T 65 970 13 299
1998281N11151 1998 81 WP MM ZEB 1998-10-12 03:00:00 TS 11.7437 131.936 main 670 614 PPPP__________ WP181998 11.7698 131.808 95 2 11.8350 131.973 5 65 972 9 92 92 9 255 255 11.7502 132.015 3 63 975 11.6198 131.950 T 67 967 15 304
1998281N11151 1998 81 WP MM ZEB 1998-10-12 06:00:00 TS 12.1750 131.300 65 970 tokyo main 614 556 OOOO__________ jtwc_wp WP181998 12.2000 131.200 100 3 12.3000 131.300 5 65 970 9 100 100 9 270 270 0 12.2000 131.300 4 68 970 12.0000 131.400 T 70 965 14 300
1998281N11151 1998 81 WP MM ZEB 1998-10-12 09:00:00 TS 12.4655 130.676 main 559 502 PPPP__________ WP181998 12.5424 130.550 105 3 12.4925 130.619 5 67 967 9 90 90 9 310 310 12.4422 130.727 4 68 970 12.3849 130.807 T 75 960 13 297
1998281N11151 1998 81 WP MM ZEB 1998-10-12 12:00:00 TS 12.7750 130.075 70 965 tokyo main 504 456 OOOO__________ jtwc_wp WP181998 12.9000 129.900 110 3 12.7000 130.000 5 70 965 9 80 80 9 350 350 0 12.7000 130.200 4 68 970 12.8000 130.200 T 80 955 14 304
1998281N11151 1998 81 WP MM ZEB 1998-10-12 15:00:00 TS 13.2197 129.530 main 448 415 PPPP__________ WP181998 13.3273 129.300 117 4 13.1546 129.550 5 72 960 9 95 95 9 362 362 13.1623 129.665 4 72 965 13.2348 129.607 T 85 950 14 312
1998281N11151 1998 81 WP MM ZEB 1998-10-12 18:00:00 TS 13.7250 128.975 75 955 tokyo main 415 385 OOOO__________ jtwc_wp WP181998 13.8000 128.700 125 4 13.7000 129.100 5 75 955 9 110 110 9 375 375 0 13.7000 129.100 4 77 960 13.7000 129.000 ST 90 945 15 312
1998281N11151 1998 81 WP MM ZEB 1998-10-12 21:00:00 TS 14.2322 128.362 main 385 365 PPPP__________ WP181998 14.3149 128.058 132 4 14.2072 128.517 5 82 942 9 135 135 9 400 400 14.2072 128.495 4 87 950 14.1997 128.380 ST 95 940 16 308
1998281N11151 1998 81 WP MM ZEB 1998-10-13 00:00:00 TS 14.7250 127.675 90 930 tokyo main 365 306 OOOO__________ jtwc_wp WP181998 14.8000 127.400 140 5 14.7000 127.800 5 90 930 9 160 160 9 425 425 0 14.7000 127.800 5 97 940 14.7000 127.700 SuperT 100 935 17 304
1998281N11151 1998 81 WP MM ZEB 1998-10-13 03:00:00 TS 15.1914 126.879 main 306 263 PPPP__________ WP181998 15.1872 126.757 145 5 15.1954 126.900 5 95 925 9 170 170 9 425 425 15.1952 126.958 5 106 930 15.1877 126.900 SuperT 105 927 18 299
1998281N11151 1998 81 WP MM ZEB 1998-10-13 06:00:00 TS 15.5750 126.075 100 920 tokyo main 263 233 OOOO__________ jtwc_wp WP181998 15.5000 126.100 150 5 15.6000 126.000 5 100 920 9 180 180 9 425 425 0 15.6000 126.100 6 116 920 15.6000 126.100 SuperT 110 920 16 294
1998281N11151 1998 81 WP MM ZEB 1998-10-13 09:00:00 TS 15.8392 125.357 main 233 225 PPPP__________ WP181998 15.7650 125.392 152 5 15.8521 125.282 5 102 915 9 185 185 9 437 437 15.8523 125.340 6 116 920 15.8872 125.412 SuperT 115 912 14 289
1998281N11151 1998 81 WP MM ZEB 1998-10-13 12:00:00 TS 16.0250 124.725 105 910 tokyo main 227 197 OOOO__________ jtwc_wp WP181998 16.0000 124.700 155 5 16.0000 124.700 5 105 910 9 190 190 9 450 450 0 16.0000 124.700 6 116 920 16.1000 124.800 SuperT 120 905 12 286
1998281N11151 1998 81 WP MM ZEB 1998-10-13 15:00:00 TS 16.1722 124.184 main 197 144 PPPP__________ WP181998 16.2499 124.055 155 5 16.0696 124.227 5 107 905 9 200 200 9 462 462 16.0695 124.227 6 121 912 16.2998 124.227 SuperT 120 905 10 288
1998281N11151 1998 81 WP MM ZEB 1998-10-13 18:00:00 TS 16.3500 123.700 110 900 tokyo main 139 81 OOOO__________ jtwc_wp WP181998 16.5000 123.500 155 5 16.2000 123.800 5 110 900 9 210 210 9 475 475 0 16.2000 123.800 6 126 905 16.5000 123.700 SuperT 120 905 11 298
1998281N11151 1998 81 WP MM ZEB 1998-10-13 21:00:00 TS 16.6674 123.205 main 77 31 PPPP__________ WP181998 16.7573 123.062 155 5 16.5924 123.308 5 110 900 9 210 210 9 475 475 16.5775 123.265 6 126 905 16.7424 123.185 SuperT 120 905 11 305
1998281N11151 1998 81 WP MM ZEB 1998-10-14 00:00:00 TS 17.0000 122.725 110 900 tokyo main 21 0 OOOO__________ jtwc_wp WP181998 17.0000 122.700 155 5 17.0000 122.800 5 110 900 9 210 210 9 475 475 0 17.0000 122.700 6 126 905 17.0000 122.700 SuperT 120 905 11 301
1998281N11151 1998 81 WP MM ZEB 1998-10-14 03:00:00 TS 17.2313 122.219 main 0 0 PPPP__________ WP181998 17.2149 122.335 137 5 17.1652 122.247 5 105 915 9 205 205 9 462 462 17.2952 122.083 6 116 917 17.2500 122.212 SuperT 112 915 10 296
1998281N11151 1998 81 WP MM ZEB 1998-10-14 06:00:00 TS 17.4250 121.800 100 930 tokyo main 0 0 OOOO__________ jtwc_wp WP181998 17.4000 122.000 120 4 17.3000 121.800 5 100 930 9 200 200 9 450 450 0 17.5000 121.600 6 106 930 17.5000 121.800 SuperT 105 925 7 300
1998281N11151 1998 81 WP MM ZEB 1998-10-14 09:00:00 TS 17.6023 121.549 main 0 0 PPPP__________ WP181998 17.5425 121.670 110 3 17.5623 121.590 5 95 935 9 190 190 9 425 425 17.5547 121.432 6 96 940 17.7499 121.505 SuperT 97 932 6 316
1998281N11151 1998 81 WP MM ZEB 1998-10-14 12:00:00 TS 17.8250 121.400 90 940 tokyo main 0 0 OOOO__________ jtwc_wp WP181998 17.7000 121.400 100 3 17.9000 121.500 5 90 940 9 180 180 9 400 400 0 17.7000 121.400 5 87 950 18.0000 121.300 ST 90 940 6 334
1998281N11151 1998 81 WP MM ZEB 1998-10-14 15:00:00 TS 18.1631 121.258 main 0 0 PPPP__________ WP181998 17.9124 121.220 95 2 18.2850 121.392 5 90 940 9 170 170 9 375 375 18.2125 121.300 5 87 952 18.2425 121.120 ST 85 945 8 342
1998281N11151 1998 81 WP MM ZEB 1998-10-14 18:00:00 TS 18.5500 121.150 90 940 tokyo main 11 0 OOOO__________ jtwc_wp WP181998 18.2000 121.100 90 2 18.7000 121.300 5 90 940 9 160 160 9 350 350 0 18.8000 121.200 5 87 955 18.5000 121.000 T 80 950 8 345
1998281N11151 1998 81 WP MM ZEB 1998-10-14 21:00:00 TS 18.9012 121.046 main 35 35 PPPP__________ WP181998 18.5550 120.970 87 2 19.1000 121.193 5 90 940 9 160 160 9 350 350 19.1800 121.092 5 82 957 18.7700 120.927 T 80 950 7 347
1998281N11151 1998 81 WP MM ZEB 1998-10-15 00:00:00 TS 19.2750 120.975 90 940 tokyo main 79 79 OOOO__________ jtwc_wp WP181998 19.0000 120.900 85 2 19.5000 121.100 5 90 940 9 160 160 9 350 350 0 19.5000 121.000 4 77 960 19.1000 120.900 T 80 950 8 353
1998281N11151 1998 81 WP MM ZEB 1998-10-15 03:00:00 TS 19.6830 120.933 main 123 123 PPPP__________ WP181998 19.5275 120.927 87 2 19.8795 121.013 5 90 940 9 160 160 9 350 350 19.8200 120.913 4 77 960 19.5050 120.878 T 80 950 9 0
1998281N11151 1998 81 WP MM ZEB 1998-10-15 06:00:00 TS 20.1500 120.950 90 940 tokyo main 179 145 OOOO__________ jtwc_wp WP181998 20.1000 121.000 90 2 20.3000 121.000 5 90 940 9 160 160 9 350 350 0 20.2000 120.900 4 77 960 20.0000 120.900 T 80 950 10 5
1998281N11151 1998 81 WP MM ZEB 1998-10-15 09:00:00 TS 20.6756 121.026 90 940 tokyo main 134 80 POPP__________ WP181998 20.6425 121.043 85 2 20.8000 121.100 5 90 940 9 140 140 9 325 325 0 20.6975 120.998 4 77 960 20.5625 120.963 T 80 950 11 10
1998281N11151 1998 81 WP MM ZEB 1998-10-15 12:00:00 TS 21.2500 121.150 85 945 tokyo main 73 41 OOOO__________ jtwc_wp WP181998 21.2000 121.100 80 1 21.3000 121.200 5 85 945 9 120 120 9 325 325 0 21.3000 121.200 4 77 960 21.2000 121.100 T 80 950 13 14
1998281N11151 1998 81 WP MM ZEB 1998-10-15 15:00:00 TS 21.8925 121.340 75 955 tokyo main 41 41 POPP__________ WP181998 21.7774 121.163 80 1 21.9000 121.400 5 75 955 9 110 110 9 325 325 0 22.0001 121.485 4 77 960 21.8925 121.313 T 80 950 14 17
1998281N11151 1998 81 WP MM ZEB 1998-10-15 18:00:00 TS 22.6000 121.600 75 960 tokyo main 52 32 OOOO__________ jtwc_wp WP181998 22.4000 121.300 80 1 22.7000 121.700 5 75 960 9 100 100 9 325 325 0 22.7000 121.800 4 77 960 22.6000 121.600 T 80 950 15 20
1998281N11151 1998 81 WP MM ZEB 1998-10-15 21:00:00 TS 23.3056 121.885 65 965 tokyo main 51 50 POPP__________ WP181998 23.0774 121.548 80 1 23.6000 122.000 5 65 965 9 90 90 9 325 325 0 23.2800 122.080 4 72 965 23.2648 121.913 T 77 952 15 21
1998281N11151 1998 81 WP MM ZEB 1998-10-16 00:00:00 TS 24.0000 122.200 60 970 tokyo main 60 46 OOOO__________ jtwc_wp WP181998 23.8000 121.900 80 1 24.5000 122.300 4 60 970 9 80 80 2 325 240 0 23.8000 122.300 4 68 970 23.9000 122.300 T 75 955 14 23
1998281N11151 1998 81 WP MM ZEB 1998-10-16 03:00:00 TS 24.5813 122.477 60 970 tokyo main 61 60 POPP__________ WP181998 24.5642 122.261 82 1 25.0000 122.600 4 60 970 9 80 80 2 325 240 0 24.2538 122.283 4 63 972 24.5074 122.763 T 75 955 13 28
1998281N11151 1998 81 WP MM ZEB 1998-10-16 06:00:00 TS 25.1750 122.900 60 970 tokyo main 93 93 OOOO__________ jtwc_wp WP181998 25.3000 122.800 85 2 25.5000 123.000 4 60 970 2 90 70 2 325 240 0 24.8000 122.500 3 58 975 25.1000 123.300 T 75 955 16 40
1998281N11151 1998 81 WP MM ZEB 1998-10-16 09:00:00 TS 25.8168 123.607 60 975 tokyo main 183 183 POPP__________ WP181998 25.9378 123.625 82 1 26.0000 123.500 4 60 975 2 90 70 2 325 240 0 25.6449 123.456 3 58 975 25.6844 123.849 T 72 957 19 48
1998281N11151 1998 81 WP MM ZEB 1998-10-16 12:00:00 TS 26.4500 124.475 60 975 tokyo main 301 301 OOOO__________ jtwc_wp WP181998 26.5000 124.600 80 1 26.5000 124.200 4 60 975 2 90 70 2 325 240 0 26.5000 124.600 3 58 975 26.3000 124.500 T 70 960 19 50
1998281N11151 1998 81 WP MM ZEB 1998-10-16 15:00:00 TS 27.0525 125.267 60 975 tokyo main 387 387 POPP__________ WP181998 26.9773 125.559 75 1 27.2000 124.900 4 60 975 2 90 70 2 325 240 0 27.0553 125.304 3 58 977 26.9775 125.306 T 67 962 19 50
1998281N11151 1998 81 WP MM ZEB 1998-10-16 18:00:00 TS 27.6500 126.075 60 975 tokyo main 433 433 OOOO__________ jtwc_wp WP181998 27.5000 126.500 70 1 27.8000 125.600 4 60 975 2 90 70 2 325 240 0 27.6000 126.000 3 58 980 27.7000 126.200 T 65 965 21 49
1998281N11151 1998 81 WP MM ZEB 1998-10-16 21:00:00 TS 28.4580 127.091 60 975 tokyo main 424 300 POPP__________ WP181998 28.1964 127.351 70 1 28.8000 126.900 4 60 975 2 80 60 2 325 240 0 28.4009 127.025 3 58 980 28.4344 127.086 T 62 967 24 48
1998281N11151 1998 81 WP MM ZEB 1998-10-17 00:00:00 TS 29.2500 128.125 60 975 tokyo main 292 184 OOOO__________ jtwc_wp WP181998 29.0000 128.200 70 1 29.6000 128.200 4 60 975 2 80 60 2 325 240 0 29.2000 128.100 3 58 980 29.2000 128.000 STS 60 970 23 49
1998281N11151 1998 81 WP MM ZEB 1998-10-17 03:00:00 TS 29.9552 129.041 60 975 tokyo main 176 67 POPP__________ WP181998 29.7810 129.087 70 1 30.4000 129.300 4 60 975 2 80 60 2 325 240 0 29.7175 128.926 3 53 982 29.9221 128.852 STS 57 972 21 47
1998281N11151 1998 81 WP MM ZEB 1998-10-17 06:00:00 TS 30.7000 129.900 50 975 tokyo main 62 33 OOOO__________ jtwc_wp WP181998 30.7000 130.100 70 1 31.0000 129.800 4 50 975 0 2 325 240 0 30.3000 129.800 3 48 985 30.8000 129.900 STS 55 975 21 46
1998281N11151 1998 81 WP MM ZEB 1998-10-17 07:00:00 TS 30.9414 130.239 50 975 tokyo main 33 0 POPP__________ WP181998 31.0469 130.489 69 1 31.1000 130.000 4 50 975 0 2 325 200 1 30.5133 130.150 3 48 985 31.1598 130.341 STS 55 975 29 50
1998281N11151 1998 81 WP MM ZEB 1998-10-17 09:00:00 TS 31.6374 131.183 50 975 tokyo main 0 0 POPP__________ WP181998 31.8100 131.335 67 1 31.9000 131.200 4 50 975 0 2 325 200 0 31.0363 130.928 3 48 985 31.9692 131.358 STS 55 975 33 47
1998281N11151 1998 81 WP MM ZEB 1998-10-17 12:00:00 TS 32.8077 132.577 50 980 tokyo main 0 0 OOOO__________ jtwc_wp WP181998 33.1000 132.700 65 1 32.9000 132.600 4 50 980 0 2 325 200 1 32.3000 132.300 3 48 985 33.3000 133.100 STS 55 975 36 43
1998281N11151 1998 81 WP MM ZEB 1998-10-17 14:00:00 TS 33.8357 133.624 50 980 tokyo main 0 0 POP___________ WP181998 33.9460 133.645 65 1 33.9000 133.800 4 50 980 0 2 325 200 1 33.6030 133.364 3 44 986 STS 43 36
1998281N11151 1998 81 WP MM ZEB 1998-10-17 15:00:00 TS 34.5539 134.116 50 980 tokyo main 0 0 POP___________ WP181998 34.4005 134.122 65 1 34.8000 134.200 4 50 980 0 2 325 200 0 34.3687 133.938 3 43 987 STS 47 32
1998281N11151 1998 81 WP MM ZEB 1998-10-17 18:00:00 MX 36.5000 135.667 50 980 tokyo main 42 34 OOO___________ jtwc_wp WP181998 36.0000 135.500 65 1 36.9000 135.800 4 50 980 0 2 325 200 0 36.9000 135.800 9 38 990 47 31
1998281N11151 1998 81 WP MM ZEB 1998-10-17 21:00:00 TS 38.5831 137.137 50 980 tokyo main 133 126 PO____________ WP181998 38.1661 136.675 62 0 39.0000 137.600 4 50 980 0 2 325 200 0 9 47 27
1998281N11151 1998 81 WP MM ZEB 1998-10-18 00:00:00 ET 40.7000 138.450 980 tokyo main 118 16 OO____________ jtwc_wp WP181998 40.4000 137.900 60 0 41.0000 139.000 6 980 0 0 0 43 27
1998281N11151 1998 81 WP MM ZEB 1998-10-18 03:00:00 ET 42.3851 139.668 main 8 0 PP____________ WP181998 42.2196 139.392 55 0 42.5506 139.943 6 983 0 0 36 31
1998281N11151 1998 81 WP MM ZEB 1998-10-18 06:00:00 ET 43.7571 140.986 986 tokyo main 26 0 OO____________ jtwc_wp WP181998 43.7000 141.100 50 0 43.8000 140.900 6 986 0 0 0 34 40
1998281N11151 1998 81 WP MM ZEB 1998-10-18 09:00:00 ET 44.9627 142.702 main 13 13 PP____________ WP181998 44.8500 142.989 50 0 45.0190 142.558 6 988 0 0 34 48
1998281N11151 1998 81 WP MM ZEB 1998-10-18 12:00:00 ET 46.0400 144.600 990 tokyo main 87 87 OO____________ jtwc_wp WP181998 45.8000 145.000 50 0 46.1000 144.500 6 990 0 0 0 34 50
1998281N11151 1998 81 WP MM ZEB 1998-10-18 15:00:00 ET 47.1494 146.495 main 213 206 _P____________ WP181998 -1 47.1494 146.495 6 991 0 0 32 52
1998281N11151 1998 81 WP MM ZEB 1998-10-18 18:00:00 ET 48.0000 148.300 992 tokyo main 255 250 _O____________ -1 48.0000 148.300 6 992 0 0 0 24 56
1998281N11151 1998 81 WP MM ZEB 1998-10-18 21:00:00 ET 48.5059 149.478 main 271 271 _P____________ -1 48.5059 149.478 6 993 0 0 18 57
1998281N11151 1998 81 WP MM ZEB 1998-10-19 00:00:00 ET 49.0000 150.600 994 tokyo main 322 223 _O____________ -1 49.0000 150.600 6 994 0 0 0 23 52
1998281N11151 1998 81 WP MM ZEB 1998-10-19 03:00:00 ET 49.8904 152.222 main 214 83 _P____________ -1 49.8904 152.222 6 994 0 0 29 55
1998281N11151 1998 81 WP MM ZEB 1998-10-19 06:00:00 ET 50.7000 154.300 994 tokyo main 77 0 _O____________ -1 50.7000 154.300 6 994 0 0 0 32 69
1998281N11151 1998 81 WP MM ZEB 1998-10-19 09:00:00 ET 51.0360 156.931 main 6 6 _P____________ -1 51.0360 156.931 6 995 0 0 33 83
1998281N11151 1998 81 WP MM ZEB 1998-10-19 12:00:00 ET 51.1000 159.500 996 tokyo main 123 123 _O____________ -1 51.1000 159.500 6 996 0 0 0 28 88
1998281N11151 1998 81 WP MM ZEB 1998-10-19 15:00:00 ET 51.1447 161.382 main 235 235 _P____________ -1 51.1447 161.382 6 998 0 0 21 90
1998281N11151 1998 81 WP MM ZEB 1998-10-19 18:00:00 ET 51.1000 162.900 1000 tokyo main 292 292 _O____________ -1 51.1000 162.900 6 1000 0 0 0 18 95
1998281N11151 1998 81 WP MM ZEB 1998-10-19 21:00:00 ET 50.9754 164.317 main 368 368 _P____________ -1 50.9754 164.317 6 1002 0 0 18 100
1998281N11151 1998 81 WP MM ZEB 1998-10-20 00:00:00 ET 50.8000 165.700 1004 tokyo main 458 _O____________ -1 50.8000 165.700 6 1004 0 0 0 18 101

デジタル台風データ・検索

IBTrACS Databaseについて

本データベースは、米国NOAAが公開する1842年以降の世界の熱帯低気圧のベストトラックデータアーカイブInternational Best Track Archive for Climate Stewardship (IBTrACS)を、ウェブで閲覧しやすい形式に変換したものです。

最終更新日:2021-10-27